Aeroporto :
LOGIN :

Iscrizione | Disclaimer

   EN    FR    IT 

 










Sommario :    VFR   VFR Marginale   IFR   IFR Intensivo   IFR Molto Intensivo
Visibilità : 
Base nubi : 
>= 8 km
>= 3000ft
5 / 8 km
1000 / 3000 ft
1500m / 5 km
500 / 1000 ft
800 / 1500m
200 / 500 ft
< 800m
< 200 ft
Simboli :   Temporali  Nebbia  Neve Forte  Precipitazioni Forti  Vento > 20 kt
SIGMETs :   Varie  Temporali  Ghiacco  Turbolenza  Onda orograficha  Ceneri Vulcaniche







- Altitudine del aeroporto : 245 ft
- Codice IATA : BIQ
- Carte del aeroporto


LFBZ - Biarritz

ULTIMO METAR :
  • 190130Z AUTO 22005KT 190V260 6000 -RA SCT022/// BKN027/// BKN036/// ///TCU 07/06 Q1015 TEMPO 4000 -RA BKN014

METARs OBSOLETI :
  • 190100Z AUTO 24004KT 9999 -RA BKN041/// BKN049/// OVC060/// ///TCU 07/06 Q1015 TEMPO 4000 -RA BKN014
  • 190030Z AUTO 23004KT 9999 -RA BKN056/// BKN068/// BKN080/// ///TCU 07/05 Q1015 TEMPO 4000 -RA BKN014
  • 190000Z AUTO 23004KT 9999 RA SCT054/// SCT066/// BKN076/// ///TCU 07/04 Q1016 TEMPO 4000 -RA BKN014
  • 182330Z AUTO 20002KT 9999 FEW042/// SCT058/// BKN074/// ///TCU 07/04 Q1016 TEMPO 4000 -RA BKN014
  • 182300Z AUTO 20003KT CAVOK 06/04 Q1016 NOSIG

TAF TAF LFBZ
Valido dal 19 a 00 ore il 20 a 00 ore UTC


182300Z 1900/1924 20005KT 9999 BKN030
PROB30
TEMPO 1900/1908 4000 -RA BKN014
PROB30
TEMPO 1908/1912 4000 SHRA BKN020TCU
TEMPO 1921/1924 -RA
Nessun NOTAM noto per questo aeroporto.



MetMap, La meteo Aeronautica in un colpo d'occhio ! - Copyright ORBIFLY Dicembre 2007 - Disclaimer

ORBIFLY MET'MAP TEAM :

Programmazione e sviluppo : Alexandra Zaïnal
Concezione e sviluppo : Baudouin d'Aumeries
Co-Programmazione e sviluppo : Marc-Olivier Méhu
Supporto tecnico e logistico : Manuel Goepfert
Aiuto per la traduzione : Arnaldo La Scala

Contatto : metmap@orbifly.com




FONTI E CREDITI :

   NOAA